Time;durP1;ratioP1;P1;durP2;ratioP2;P2;SDS_P1;SDS_P2;PMS_P1;PMS_P2;Temp;Humidity;BMP_temperature;BMP_pressure;BME280_temperature;BME280_humidity;BME280_pressure;Samples;Min_cycle;Max_cycle;Signal;HPM_P1;HPM_P2
2022/10/27 00:00:47;;;;;;;;;;;19.10;99.90;;;;;;5117992;28;19923;-86
2022/10/27 00:03:14;;;;;;;;;;;19.10;99.90;;;;;;5118119;28;20186;-86
2022/10/27 00:05:39;;;;;;;;;;;19.10;99.90;;;;;;5117566;28;19915;-86
2022/10/27 00:08:05;;;;;;;;;;;19.00;99.90;;;;;;5117773;28;19908;-86
2022/10/27 00:10:31;;;;;;;;;;;19.00;99.90;;;;;;5116683;28;19912;-86
2022/10/27 00:12:56;;;;;;;;;;;19.00;99.90;;;;;;5115923;28;19918;-86
2022/10/27 00:15:22;;;;;;;;;;;19.10;99.90;;;;;;5115142;28;20216;-86
2022/10/27 00:17:48;;;;;;;;;;;19.00;99.90;;;;;;5115356;28;19908;-86
2022/10/27 00:20:16;;;;;;;;;;;19.00;99.90;;;;;;5114506;28;20052;-86
2022/10/27 00:22:42;;;;;;;;;;;19.00;99.90;;;;;;5114243;28;19908;-86
2022/10/27 00:25:07;;;;;;;;;;;19.00;99.90;;;;;;5113272;28;20223;-86
2022/10/27 00:27:33;;;;;;;;;;;19.00;99.90;;;;;;5115054;28;19912;-86
2022/10/27 00:29:59;;;;;;;;;;;19.00;99.90;;;;;;5114731;28;19908;-86
2022/10/27 00:32:24;;;;;;;;;;;19.00;99.90;;;;;;5113886;28;20193;-86
2022/10/27 00:34:53;;;;;;;;;;;19.00;99.90;;;;;;5114896;28;20306;-86
2022/10/27 00:37:18;;;;;;;;;;;18.90;99.90;;;;;;5115006;28;20269;-86
2022/10/27 00:39:44;;;;;;;;;;;19.00;99.90;;;;;;5115050;28;20050;-86
2022/10/27 00:42:13;;;;;;;;;;;18.90;99.90;;;;;;5115017;28;19908;-86
2022/10/27 00:44:38;;;;;;;;;;;18.90;99.90;;;;;;5115431;28;19923;-86
2022/10/27 00:47:36;;;;;;;;;;;19.00;99.90;;;;;;5115162;28;19943;-86
2022/10/27 00:50:01;;;;;;;;;;;18.90;99.90;;;;;;5115438;28;20253;-86
2022/10/27 00:52:27;;;;;;;;;;;19.00;99.90;;;;;;5113760;28;20157;-86
2022/10/27 00:54:57;;;;;;;;;;;18.90;99.90;;;;;;5115385;28;20300;-86
2022/10/27 00:57:26;;;;;;;;;;;18.90;99.90;;;;;;5114181;28;19907;-86
2022/10/27 00:59:51;;;;;;;;;;;18.90;99.90;;;;;;5114274;28;19937;-86
2022/10/27 01:02:20;;;;;;;;;;;18.90;99.90;;;;;;5114327;28;20155;-86
2022/10/27 01:04:54;;;;;;;;;;;18.90;99.90;;;;;;5115235;28;20285;-86
2022/10/27 01:07:21;;;;;;;;;;;18.90;99.90;;;;;;5115586;28;20093;-86
2022/10/27 01:09:47;;;;;;;;;;;18.90;99.90;;;;;;5115953;28;20002;-86
2022/10/27 01:12:13;;;;;;;;;;;18.90;99.90;;;;;;5118059;28;20290;-86
2022/10/27 01:14:38;;;;;;;;;;;18.90;99.90;;;;;;5117158;28;20266;-86
2022/10/27 01:17:04;;;;;;;;;;;18.90;99.90;;;;;;5116656;28;19998;-86
2022/10/27 01:19:36;;;;;;;;;;;18.90;99.90;;;;;;5115840;28;19966;-86
2022/10/27 01:22:10;;;;;;;;;;;18.90;99.90;;;;;;5116117;28;19954;-86
2022/10/27 01:24:54;;;;;;;;;;;18.90;99.90;;;;;;5116110;28;20289;-86
2022/10/27 01:27:23;;;;;;;;;;;18.90;99.90;;;;;;5116285;28;19908;-86
2022/10/27 01:29:57;;;;;;;;;;;18.90;99.90;;;;;;5116070;28;19962;-87
2022/10/27 01:32:37;;;;;;;;;;;18.80;99.90;;;;;;5115470;28;19961;-87
2022/10/27 01:35:06;;;;;;;;;;;18.80;99.90;;;;;;5114246;28;20007;-87
2022/10/27 01:37:39;;;;;;;;;;;18.80;99.90;;;;;;5114444;28;19915;-87
2022/10/27 01:40:04;;;;;;;;;;;18.80;99.90;;;;;;5115208;28;19920;-87
2022/10/27 01:42:48;;;;;;;;;;;18.80;99.90;;;;;;5114940;28;20203;-87
2022/10/27 01:45:16;;;;;;;;;;;18.80;99.90;;;;;;5115490;28;19915;-87
2022/10/27 01:47:42;;;;;;;;;;;18.80;99.90;;;;;;5116330;28;19998;-86
2022/10/27 01:50:23;;;;;;;;;;;18.80;99.90;;;;;;5116190;28;20285;-86
2022/10/27 01:52:52;;;;;;;;;;;18.80;99.90;;;;;;5116485;28;19919;-86
2022/10/27 01:55:18;;;;;;;;;;;18.80;99.90;;;;;;5114798;28;20372;-87
2022/10/27 01:57:52;;;;;;;;;;;18.80;99.90;;;;;;5115430;28;19994;-87
2022/10/27 02:00:18;;;;;;;;;;;18.80;99.90;;;;;;5114777;28;20006;-87
2022/10/27 02:03:05;;;;;;;;;;;18.80;99.90;;;;;;5114745;28;19916;-87
2022/10/27 02:05:31;;;;;;;;;;;18.70;99.90;;;;;;5115056;28;20010;-87
2022/10/27 02:07:56;;;;;;;;;;;18.80;99.90;;;;;;5114488;28;20002;-87
2022/10/27 02:10:31;;;;;;;;;;;18.70;99.90;;;;;;5114533;28;19908;-87
2022/10/27 02:12:57;;;;;;;;;;;18.70;99.90;;;;;;5115902;28;20185;-87
2022/10/27 02:15:35;;;;;;;;;;;18.70;99.90;;;;;;5116732;28;19908;-86
2022/10/27 02:18:21;;;;;;;;;;;18.70;99.90;;;;;;5115532;28;19908;-86
2022/10/27 02:20:49;;;;;;;;;;;18.70;99.90;;;;;;5115524;28;19912;-87
2022/10/27 02:23:18;;;;;;;;;;;18.70;99.90;;;;;;5114997;28;20392;-87
2022/10/27 02:26:03;;;;;;;;;;;18.70;99.90;;;;;;5113582;28;19919;-86
2022/10/27 02:28:34;;;;;;;;;;;18.70;99.90;;;;;;5113086;28;19951;-86
2022/10/27 02:31:00;;;;;;;;;;;18.70;99.90;;;;;;5111652;28;19908;-86
2022/10/27 02:33:26;;;;;;;;;;;18.70;99.90;;;;;;5113250;28;19962;-87
2022/10/27 02:35:52;;;;;;;;;;;18.70;99.90;;;;;;5113269;28;19955;-87
2022/10/27 02:38:18;;;;;;;;;;;18.70;99.90;;;;;;5114011;28;20329;-87
2022/10/27 02:40:44;;;;;;;;;;;18.60;99.90;;;;;;5114043;28;20228;-86
2022/10/27 02:43:09;;;;;;;;;;;18.60;99.90;;;;;;5113932;28;20266;-86
2022/10/27 02:45:38;;;;;;;;;;;18.60;99.90;;;;;;5113883;28;19931;-86
2022/10/27 02:48:03;;;;;;;;;;;18.70;99.90;;;;;;5112472;28;19946;-86
2022/10/27 02:50:29;;;;;;;;;;;18.60;99.90;;;;;;5113461;28;19955;-86
2022/10/27 02:52:55;;;;;;;;;;;18.60;99.90;;;;;;5112650;28;19907;-86
2022/10/27 02:55:20;;;;;;;;;;;18.60;99.90;;;;;;5113463;28;20250;-86
2022/10/27 02:57:46;;;;;;;;;;;18.60;99.90;;;;;;5114818;28;19959;-86
2022/10/27 03:00:18;;;;;;;;;;;18.60;99.90;;;;;;5112469;28;20018;-86
2022/10/27 03:02:45;;;;;;;;;;;18.60;99.90;;;;;;5112475;28;20035;-86
2022/10/27 03:05:11;;;;;;;;;;;18.60;99.90;;;;;;5112714;28;20050;-87
2022/10/27 03:07:36;;;;;;;;;;;18.60;99.90;;;;;;5112291;28;20158;-86
2022/10/27 03:10:02;;;;;;;;;;;18.60;99.90;;;;;;5114024;28;19915;-86
2022/10/27 03:12:31;;;;;;;;;;;18.60;99.90;;;;;;5111939;28;20186;-86
2022/10/27 03:14:59;;;;;;;;;;;18.60;99.90;;;;;;5113048;28;20335;-86
2022/10/27 03:17:25;;;;;;;;;;;18.60;99.90;;;;;;5112678;28;19907;-86
2022/10/27 03:19:51;;;;;;;;;;;18.60;99.90;;;;;;5113516;28;20026;-86
2022/10/27 03:22:19;;;;;;;;;;;18.60;99.90;;;;;;5113303;28;19919;-86
2022/10/27 03:24:46;;;;;;;;;;;18.60;99.90;;;;;;5113006;28;19908;-86
2022/10/27 03:27:11;;;;;;;;;;;18.60;99.90;;;;;;5111355;28;19923;-86
2022/10/27 03:29:37;;;;;;;;;;;18.50;99.90;;;;;;5111826;28;19907;-86
2022/10/27 03:32:03;;;;;;;;;;;18.50;99.90;;;;;;5111637;28;20015;-87
2022/10/27 03:34:28;;;;;;;;;;;18.60;99.90;;;;;;5111765;28;19947;-87
2022/10/27 03:36:54;;;;;;;;;;;18.50;99.90;;;;;;5112818;28;19912;-87
2022/10/27 03:39:20;;;;;;;;;;;18.50;99.90;;;;;;5113697;28;20278;-87
2022/10/27 03:41:48;;;;;;;;;;;18.50;99.90;;;;;;5112764;28;19918;-87
2022/10/27 03:44:14;;;;;;;;;;;18.50;99.90;;;;;;5113909;28;19908;-87
2022/10/27 03:46:39;;;;;;;;;;;18.50;99.90;;;;;;5112997;28;19961;-86
2022/10/27 03:49:05;;;;;;;;;;;18.50;99.90;;;;;;5112551;28;19908;-86
2022/10/27 03:51:34;;;;;;;;;;;18.50;99.90;;;;;;5111717;28;19961;-86
2022/10/27 03:53:59;;;;;;;;;;;18.50;99.90;;;;;;5112296;28;19908;-87
2022/10/27 03:56:25;;;;;;;;;;;18.50;99.90;;;;;;5111579;28;19918;-87
2022/10/27 03:59:15;;;;;;;;;;;18.50;99.90;;;;;;5110847;28;19908;-86
2022/10/27 04:01:42;;;;;;;;;;;18.50;99.90;;;;;;5113927;28;19976;-86
2022/10/27 04:04:12;;;;;;;;;;;18.50;99.90;;;;;;5115317;28;19908;-86
2022/10/27 04:06:41;;;;;;;;;;;18.50;99.90;;;;;;5116489;28;20138;-87
2022/10/27 04:09:06;;;;;;;;;;;18.50;99.90;;;;;;5116092;28;20015;-87
2022/10/27 04:11:32;;;;;;;;;;;18.50;99.90;;;;;;5116179;28;20006;-87
2022/10/27 04:14:00;;;;;;;;;;;18.50;99.90;;;;;;5115753;28;20173;-87
2022/10/27 04:16:26;;;;;;;;;;;18.50;99.90;;;;;;5115718;28;20149;-87
2022/10/27 04:18:51;;;;;;;;;;;18.40;99.90;;;;;;5113969;28;20257;-87
2022/10/27 04:21:17;;;;;;;;;;;18.50;99.90;;;;;;5113050;28;19962;-87
2022/10/27 04:23:44;;;;;;;;;;;18.40;99.90;;;;;;5112366;28;19950;-87
2022/10/27 04:26:09;;;;;;;;;;;18.40;99.90;;;;;;5114710;28;19908;-87
2022/10/27 04:28:35;;;;;;;;;;;18.50;99.90;;;;;;5114700;28;19933;-87
2022/10/27 04:31:00;;;;;;;;;;;18.40;99.90;;;;;;5115408;28;19954;-87
2022/10/27 04:33:28;;;;;;;;;;;18.40;99.90;;;;;;5114392;28;20246;-87
2022/10/27 04:35:54;;;;;;;;;;;18.40;99.90;;;;;;5112957;28;19918;-87
2022/10/27 04:38:20;;;;;;;;;;;18.40;99.90;;;;;;5113728;28;19915;-87
2022/10/27 04:40:45;;;;;;;;;;;18.40;99.90;;;;;;5112985;28;19931;-87
2022/10/27 04:43:11;;;;;;;;;;;18.40;99.90;;;;;;5113276;28;19908;-87
2022/10/27 04:45:40;;;;;;;;;;;18.40;99.90;;;;;;5110985;28;19918;-87
2022/10/27 04:48:18;;;;;;;;;;;18.40;99.90;;;;;;5111689;28;20139;-87
2022/10/27 04:50:43;;;;;;;;;;;18.40;99.90;;;;;;5112253;28;19950;-87
2022/10/27 04:53:09;;;;;;;;;;;18.40;99.90;;;;;;5111084;28;19955;-87
2022/10/27 04:55:35;;;;;;;;;;;18.40;99.90;;;;;;5110272;28;19918;-87
2022/10/27 04:58:00;;;;;;;;;;;18.40;99.90;;;;;;5113353;28;19908;-86
2022/10/27 05:00:38;;;;;;;;;;;18.40;99.90;;;;;;5111754;28;19994;-86
2022/10/27 05:03:04;;;;;;;;;;;18.40;99.90;;;;;;5109365;28;19915;-86
2022/10/27 05:05:32;;;;;;;;;;;18.40;99.90;;;;;;5107204;28;19908;-86
2022/10/27 05:08:02;;;;;;;;;;;18.40;99.90;;;;;;5110043;28;20329;-86
2022/10/27 05:10:28;;;;;;;;;;;18.40;99.90;;;;;;5107818;28;19908;-86
2022/10/27 05:12:54;;;;;;;;;;;18.40;99.90;;;;;;5107693;28;19908;-86
2022/10/27 05:15:19;;;;;;;;;;;18.40;99.90;;;;;;5109932;28;20315;-86
2022/10/27 05:17:45;;;;;;;;;;;18.40;99.90;;;;;;5109579;28;20269;-86
2022/10/27 05:20:10;;;;;;;;;;;18.40;99.90;;;;;;5108607;28;19989;-87
2022/10/27 05:22:36;;;;;;;;;;;18.40;99.90;;;;;;5110139;28;20297;-86
2022/10/27 05:25:02;;;;;;;;;;;18.40;99.90;;;;;;5106173;28;20012;-86
2022/10/27 05:27:33;;;;;;;;;;;18.40;99.90;;;;;;5103264;28;20063;-86
2022/10/27 05:29:58;;;;;;;;;;;18.40;99.90;;;;;;5105134;28;19919;-86
2022/10/27 05:32:24;;;;;;;;;;;18.40;99.90;;;;;;5105080;28;19912;-86
2022/10/27 05:34:49;;;;;;;;;;;18.40;99.90;;;;;;5105455;28;19982;-86
2022/10/27 05:37:15;;;;;;;;;;;18.30;99.90;;;;;;5104039;28;20346;-86
2022/10/27 05:39:41;;;;;;;;;;;18.40;99.90;;;;;;5104652;28;20068;-86
2022/10/27 05:42:09;;;;;;;;;;;18.30;99.90;;;;;;5105237;28;19908;-86
2022/10/27 05:44:37;;;;;;;;;;;18.30;99.90;;;;;;5104885;28;19912;-86
2022/10/27 05:47:03;;;;;;;;;;;18.30;99.90;;;;;;5104485;28;19907;-86
2022/10/27 05:49:29;;;;;;;;;;;18.30;99.90;;;;;;5104942;28;19971;-86
2022/10/27 05:51:54;;;;;;;;;;;18.30;99.90;;;;;;5104866;28;19943;-86
2022/10/27 05:54:20;;;;;;;;;;;18.30;99.90;;;;;;5106711;28;19908;-86
2022/10/27 05:56:48;;;;;;;;;;;18.30;99.90;;;;;;5104758;28;19943;-86
2022/10/27 05:59:13;;;;;;;;;;;18.30;99.90;;;;;;5104308;28;19919;-86
2022/10/27 06:01:39;;;;;;;;;;;18.30;99.90;;;;;;5102807;28;19916;-87
2022/10/27 06:04:04;;;;;;;;;;;18.30;99.90;;;;;;5103489;28;20018;-86
2022/10/27 06:06:30;;;;;;;;;;;18.30;99.90;;;;;;5105282;28;20178;-86
2022/10/27 06:08:55;;;;;;;;;;;18.30;99.90;;;;;;5102817;28;20059;-86
2022/10/27 06:11:21;;;;;;;;;;;18.30;99.90;;;;;;5102740;28;19919;-87
2022/10/27 06:13:50;;;;;;;;;;;18.30;99.90;;;;;;5101592;28;19908;-87
2022/10/27 06:16:19;;;;;;;;;;;18.30;99.90;;;;;;5102609;28;19908;-87
2022/10/27 06:18:48;;;;;;;;;;;18.30;99.90;;;;;;5106652;28;19912;-87
2022/10/27 06:21:16;;;;;;;;;;;18.30;99.90;;;;;;5106080;28;19915;-87
2022/10/27 06:23:45;;;;;;;;;;;18.30;99.90;;;;;;5104036;28;20335;-86
2022/10/27 06:26:10;;;;;;;;;;;18.40;99.90;;;;;;5104722;28;20024;-86
2022/10/27 06:28:36;;;;;;;;;;;18.30;99.90;;;;;;5106215;28;20399;-86
2022/10/27 06:31:01;;;;;;;;;;;18.40;99.90;;;;;;5102267;28;20325;-86
2022/10/27 06:33:27;;;;;;;;;;;18.40;99.90;;;;;;5104656;28;19915;-86
2022/10/27 06:35:56;;;;;;;;;;;18.40;99.90;;;;;;5101482;28;19912;-86
2022/10/27 06:38:24;;;;;;;;;;;18.50;99.90;;;;;;5103502;28;19923;-87
2022/10/27 06:40:50;;;;;;;;;;;18.50;99.90;;;;;;5102604;28;19935;-87
2022/10/27 06:43:16;;;;;;;;;;;18.50;99.90;;;;;;5104750;28;19908;-86
2022/10/27 06:45:45;;;;;;;;;;;18.50;99.90;;;;;;5106371;28;20118;-86
2022/10/27 06:48:10;;;;;;;;;;;18.50;99.90;;;;;;5106414;28;19976;-86
2022/10/27 06:50:38;;;;;;;;;;;18.60;99.90;;;;;;5107401;28;19908;-86
2022/10/27 06:53:04;;;;;;;;;;;18.60;99.90;;;;;;5105231;28;20150;-86
2022/10/27 06:55:30;;;;;;;;;;;18.60;99.90;;;;;;5104919;28;20249;-86
2022/10/27 06:57:56;;;;;;;;;;;18.70;99.90;;;;;;5106171;28;20486;-86
2022/10/27 07:00:21;;;;;;;;;;;18.70;99.90;;;;;;5106161;28;19913;-86
2022/10/27 07:02:47;;;;;;;;;;;18.70;99.90;;;;;;5106829;28;20002;-86
2022/10/27 07:05:13;;;;;;;;;;;18.80;99.90;;;;;;5105541;28;19908;-86
2022/10/27 07:07:38;;;;;;;;;;;18.80;99.90;;;;;;5105409;28;19911;-87
2022/10/27 07:10:05;;;;;;;;;;;18.80;99.90;;;;;;5105257;28;19978;-87
2022/10/27 07:12:31;;;;;;;;;;;18.90;99.90;;;;;;5106303;28;20205;-86
2022/10/27 07:15:00;;;;;;;;;;;18.90;99.90;;;;;;5104710;28;19908;-86
2022/10/27 07:17:28;;;;;;;;;;;19.00;99.90;;;;;;5105774;28;19968;-86
2022/10/27 07:19:54;;;;;;;;;;;19.10;99.90;;;;;;5106011;28;20236;-86
2022/10/27 07:22:22;;;;;;;;;;;19.30;99.90;;;;;;5108355;28;20289;-86
2022/10/27 07:24:51;;;;;;;;;;;19.50;99.90;;;;;;5104343;28;20419;-86
2022/10/27 07:27:19;;;;;;;;;;;19.60;99.90;;;;;;5103921;28;20014;-86
2022/10/27 07:29:48;;;;;;;;;;;19.90;99.90;;;;;;5102175;28;20331;-86
2022/10/27 07:32:16;;;;;;;;;;;20.20;99.90;;;;;;5103699;28;19908;-86
2022/10/27 07:34:42;;;;;;;;;;;20.70;99.90;;;;;;5106020;28;20176;-86
2022/10/27 07:37:08;;;;;;;;;;;21.60;98.60;;;;;;5109306;28;19908;-87
2022/10/27 07:39:33;;;;;;;;;;;22.40;96.40;;;;;;5109941;28;19933;-87
2022/10/27 07:42:02;;;;;;;;;;;23.00;94.70;;;;;;5108740;28;20332;-87
2022/10/27 07:44:28;;;;;;;;;;;23.30;93.30;;;;;;5110163;28;20162;-87
2022/10/27 07:46:53;;;;;;;;;;;23.70;91.80;;;;;;5109594;28;20301;-87
2022/10/27 07:49:19;;;;;;;;;;;23.90;90.80;;;;;;5110724;28;19943;-87
2022/10/27 07:51:44;;;;;;;;;;;24.20;89.60;;;;;;5109939;28;20113;-87
2022/10/27 07:54:10;;;;;;;;;;;24.40;88.50;;;;;;5110722;28;19907;-87
2022/10/27 07:56:36;;;;;;;;;;;24.60;86.00;;;;;;5111646;28;19939;-87
2022/10/27 07:59:02;;;;;;;;;;;24.90;84.00;;;;;;5109333;28;19938;-87
2022/10/27 08:01:27;;;;;;;;;;;25.20;81.80;;;;;;5108707;28;20048;-87
2022/10/27 08:03:53;;;;;;;;;;;25.40;79.70;;;;;;5107579;28;19914;-88
2022/10/27 08:06:19;;;;;;;;;;;25.60;78.20;;;;;;5108253;28;19908;-86
2022/10/27 08:08:44;;;;;;;;;;;25.70;77.00;;;;;;5110196;28;19918;-87
2022/10/27 08:11:10;;;;;;;;;;;25.90;75.50;;;;;;5106827;28;19908;-87
2022/10/27 08:13:39;;;;;;;;;;;26.20;73.50;;;;;;5108062;28;19997;-87
2022/10/27 08:16:05;;;;;;;;;;;26.40;71.70;;;;;;5106199;28;19912;-87
2022/10/27 08:18:30;;;;;;;;;;;26.70;69.90;;;;;;5106587;28;20254;-88
2022/10/27 08:20:56;;;;;;;;;;;26.90;68.40;;;;;;5106896;28;19911;-87
2022/10/27 08:23:24;;;;;;;;;;;26.70;67.90;;;;;;5105386;28;20290;-87
2022/10/27 08:25:50;;;;;;;;;;;26.80;67.70;;;;;;5108369;28;20339;-88
2022/10/27 08:28:16;;;;;;;;;;;26.90;67.00;;;;;;5109273;28;19951;-88
2022/10/27 08:30:41;;;;;;;;;;;27.00;66.40;;;;;;5109332;28;20009;-87
2022/10/27 08:33:08;;;;;;;;;;;27.30;65.20;;;;;;5108878;28;20022;-88
2022/10/27 08:35:34;;;;;;;;;;;27.60;64.60;;;;;;5106309;28;20289;-84
2022/10/27 08:37:59;;;;;;;;;;;27.80;62.60;;;;;;5106170;28;19916;-85
2022/10/27 08:40:29;;;;;;;;;;;28.00;61.50;;;;;;5106090;28;19926;-85
2022/10/27 08:43:00;;;;;;;;;;;28.20;61.30;;;;;;5104510;28;20279;-85
2022/10/27 08:45:31;;;;;;;;;;;28.40;59.90;;;;;;5104854;28;20093;-85
2022/10/27 08:47:58;;;;;;;;;;;28.50;59.40;;;;;;5106604;28;19916;-85
2022/10/27 08:50:25;;;;;;;;;;;28.50;59.00;;;;;;5105956;28;19947;-85
2022/10/27 08:52:54;;;;;;;;;;;28.50;58.90;;;;;;5107528;28;19944;-85
2022/10/27 08:55:44;;;;;;;;;;;28.60;58.70;;;;;;5107789;28;19908;-85
2022/10/27 08:58:18;;;;;;;;;;;28.70;58.50;;;;;;5109130;28;19914;-85
2022/10/27 09:00:48;;;;;;;;;;;28.80;58.10;;;;;;5107274;28;19911;-85
2022/10/27 09:03:14;;;;;;;;;;;28.80;57.90;;;;;;5109700;28;20195;-85
2022/10/27 09:05:39;;;;;;;;;;;28.80;57.90;;;;;;5108886;28;20113;-86
2022/10/27 09:08:26;;;;;;;;;;;28.80;57.80;;;;;;5107850;28;19962;-86
2022/10/27 09:11:05;;;;;;;;;;;28.90;57.70;;;;;;5066218;28;20289;-86
2022/10/27 09:13:31;;;;;;;;;;;28.80;57.50;;;;;;5107599;28;19908;-85
2022/10/27 09:16:00;;;;;;;;;;;28.80;57.60;;;;;;5106104;28;19982;-86
2022/10/27 09:18:38;;;;;;;;;;;28.80;57.60;;;;;;5106692;28;20180;-86
2022/10/27 09:21:13;;;;;;;;;;;28.50;57.60;;;;;;5106643;28;20006;-90
2022/10/27 09:23:42;;;;;;;;;;;28.00;58.10;;;;;;5108285;28;19913;-89
2022/10/27 09:26:09;;;;;;;;;;;27.60;59.00;;;;;;5107972;28;19908;-88
2022/10/27 09:28:36;;;;;;;;;;;27.10;59.70;;;;;;5108278;28;19915;-86
2022/10/27 09:31:03;;;;;;;;;;;26.50;61.20;;;;;;5109489;28;19918;-86
2022/10/27 09:33:31;;;;;;;;;;;26.10;63.10;;;;;;5106283;28;20205;-85
2022/10/27 09:35:57;;;;;;;;;;;25.70;65.40;;;;;;5108414;28;19958;-86
2022/10/27 09:38:23;;;;;;;;;;;25.30;67.80;;;;;;5109567;28;19908;-86
2022/10/27 09:40:51;;;;;;;;;;;25.00;70.40;;;;;;5105716;28;20080;-85
2022/10/27 09:43:23;;;;;;;;;;;24.70;73.00;;;;;;5103492;28;20033;-85
2022/10/27 09:45:54;;;;;;;;;;;24.40;75.50;;;;;;5104524;28;19950;-85
2022/10/27 09:48:21;;;;;;;;;;;24.20;77.60;;;;;;5104557;28;19907;-86
2022/10/27 09:50:52;;;;;;;;;;;24.00;79.90;;;;;;5104072;28;19985;-86
2022/10/27 09:53:37;;;;;;;;;;;23.80;81.50;;;;;;5102175;28;19916;-86
2022/10/27 09:56:03;;;;;;;;;;;23.70;83.00;;;;;;5104059;28;20315;-86
2022/10/27 09:58:39;;;;;;;;;;;23.60;84.40;;;;;;5105551;28;20011;-85
2022/10/27 10:01:05;;;;;;;;;;;23.50;85.70;;;;;;5105829;28;19912;-86
2022/10/27 10:03:31;;;;;;;;;;;23.40;86.80;;;;;;5106469;28;19908;-86
2022/10/27 10:06:01;;;;;;;;;;;23.30;87.80;;;;;;5106128;28;19935;-86
2022/10/27 10:08:34;;;;;;;;;;;23.30;88.70;;;;;;5107228;28;20212;-86
2022/10/27 10:11:00;;;;;;;;;;;23.20;89.60;;;;;;5108638;28;20270;-85
2022/10/27 10:13:30;;;;;;;;;;;23.10;90.10;;;;;;5089803;28;20269;-86
2022/10/27 10:16:12;;;;;;;;;;;23.10;90.50;;;;;;5103073;28;19961;-86
2022/10/27 10:18:39;;;;;;;;;;;23.00;90.80;;;;;;5104026;28;20000;-85
2022/10/27 10:21:07;;;;;;;;;;;23.00;91.10;;;;;;5102870;28;20381;-85
2022/10/27 10:23:39;;;;;;;;;;;22.90;91.40;;;;;;5102225;28;20146;-85
2022/10/27 10:26:15;;;;;;;;;;;22.80;91.70;;;;;;5103487;28;20254;-86
2022/10/27 10:28:42;;;;;;;;;;;22.80;91.90;;;;;;5104353;28;20131;-85
2022/10/27 10:31:09;;;;;;;;;;;22.70;92.20;;;;;;5102767;28;19962;-86
2022/10/27 10:33:36;;;;;;;;;;;22.70;92.50;;;;;;5105919;28;20040;-85
2022/10/27 10:36:24;;;;;;;;;;;22.70;92.70;;;;;;5104815;28;19915;-85
2022/10/27 10:38:51;;;;;;;;;;;22.60;92.90;;;;;;5093170;28;19907;-85
2022/10/27 10:41:20;;;;;;;;;;;22.60;93.20;;;;;;5104560;28;20017;-85
2022/10/27 10:43:46;;;;;;;;;;;22.50;93.30;;;;;;5106567;28;19934;-85
2022/10/27 10:46:19;;;;;;;;;;;22.50;93.60;;;;;;5105584;28;19915;-85
2022/10/27 10:48:50;;;;;;;;;;;22.40;93.80;;;;;;5103675;28;20182;-84
2022/10/27 10:51:32;;;;;;;;;;;22.40;94.00;;;;;;5104779;28;19912;-85
2022/10/27 10:54:04;;;;;;;;;;;22.40;94.10;;;;;;5105309;28;19968;-85
2022/10/27 10:56:31;;;;;;;;;;;22.40;94.30;;;;;;5103500;28;20061;-85
2022/10/27 10:59:10;;;;;;;;;;;22.30;94.50;;;;;;5101923;28;19908;-85
2022/10/27 11:01:39;;;;;;;;;;;22.30;94.60;;;;;;5103697;28;19988;-86
2022/10/27 11:04:07;;;;;;;;;;;22.30;94.70;;;;;;5102705;28;19914;-85
2022/10/27 11:06:33;;;;;;;;;;;22.30;94.90;;;;;;5103401;28;19908;-88
2022/10/27 11:09:00;;;;;;;;;;;22.30;95.10;;;;;;5106228;28;19918;-88
2022/10/27 11:11:31;;;;;;;;;;;22.20;95.20;;;;;;5108612;28;20179;-87
2022/10/27 11:14:10;;;;;;;;;;;22.20;95.40;;;;;;5110823;28;19908;-88
2022/10/27 11:16:37;;;;;;;;;;;22.20;95.60;;;;;;5108125;28;20276;-87
2022/10/27 11:19:08;;;;;;;;;;;22.10;95.70;;;;;;5107244;28;19908;-88
2022/10/27 11:21:41;;;;;;;;;;;22.10;95.90;;;;;;5105021;28;20269;-87
2022/10/27 11:24:06;;;;;;;;;;;22.10;96.00;;;;;;5104153;28;19907;-87
2022/10/27 11:26:37;;;;;;;;;;;22.00;96.10;;;;;;5104486;28;20276;-87
2022/10/27 11:29:07;;;;;;;;;;;22.10;96.40;;;;;;5106984;28;19908;-87
2022/10/27 11:31:48;;;;;;;;;;;22.00;96.50;;;;;;5107529;28;20044;-87
2022/10/27 11:34:32;;;;;;;;;;;22.00;96.60;;;;;;5105840;28;20068;-87
2022/10/27 11:37:07;;;;;;;;;;;22.00;96.80;;;;;;5105323;28;19908;-87
2022/10/27 11:39:46;;;;;;;;;;;22.00;96.90;;;;;;5105773;28;20269;-87
2022/10/27 11:42:20;;;;;;;;;;;21.90;97.10;;;;;;5105707;28;20042;-88
2022/10/27 11:45:05;;;;;;;;;;;21.90;97.20;;;;;;5106395;28;19912;-87
2022/10/27 11:47:34;;;;;;;;;;;21.90;97.40;;;;;;5105190;28;19961;-88
2022/10/27 11:50:23;;;;;;;;;;;21.90;97.60;;;;;;5106429;28;20007;-88
2022/10/27 11:52:50;;;;;;;;;;;21.90;97.70;;;;;;5107461;28;20031;-88
2022/10/27 11:55:17;;;;;;;;;;;21.90;97.80;;;;;;5107877;28;20261;-87
2022/10/27 11:57:49;;;;;;;;;;;21.90;97.90;;;;;;5106861;28;19907;-88
2022/10/27 12:00:22;;;;;;;;;;;21.80;97.90;;;;;;5105972;28;20027;-87
2022/10/27 12:03:05;;;;;;;;;;;21.80;98.10;;;;;;5107573;28;19916;-88
2022/10/27 12:05:44;;;;;;;;;;;21.80;98.20;;;;;;5106882;28;19968;-87
2022/10/27 12:08:25;;;;;;;;;;;21.80;98.30;;;;;;5106789;28;19951;-87
2022/10/27 12:10:52;;;;;;;;;;;21.80;98.40;;;;;;5106447;28;20001;-87
2022/10/27 12:13:21;;;;;;;;;;;21.70;98.40;;;;;;5105952;28;20073;-87
2022/10/27 12:15:52;;;;;;;;;;;21.80;98.50;;;;;;5104626;28;20239;-88
2022/10/27 12:18:24;;;;;;;;;;;21.70;98.60;;;;;;5105543;28;20082;-87
2022/10/27 12:20:58;;;;;;;;;;;21.70;98.70;;;;;;5106426;28;19912;-87
2022/10/27 12:23:28;;;;;;;;;;;21.70;98.80;;;;;;5105237;28;19989;-87
2022/10/27 12:26:12;;;;;;;;;;;21.70;99.00;;;;;;5104712;28;19919;-87
2022/10/27 12:28:37;;;;;;;;;;;21.70;99.10;;;;;;5107411;28;19908;-87
2022/10/27 12:31:10;;;;;;;;;;;21.70;99.20;;;;;;5105535;28;19918;-87
2022/10/27 12:33:38;;;;;;;;;;;21.70;99.30;;;;;;5105097;28;19915;-87
2022/10/27 12:36:07;;;;;;;;;;;21.70;99.40;;;;;;5104859;28;19962;-87
2022/10/27 12:38:39;;;;;;;;;;;21.70;99.40;;;;;;5107832;28;19916;-87
2022/10/27 12:41:05;;;;;;;;;;;21.70;99.40;;;;;;5105168;28;19926;-87
2022/10/27 12:43:45;;;;;;;;;;;21.70;99.70;;;;;;5113213;28;20011;-86
2022/10/27 12:46:19;;;;;;;;;;;21.70;99.50;;;;;;5112038;28;19908;-86
2022/10/27 12:48:51;;;;;;;;;;;21.70;99.60;;;;;;5112048;28;20335;-86
2022/10/27 12:51:31;;;;;;;;;;;21.70;99.70;;;;;;5100436;28;20004;-86
2022/10/27 12:54:08;;;;;;;;;;;21.70;99.70;;;;;;5107364;28;20101;-85
2022/10/27 12:56:41;;;;;;;;;;;21.60;99.80;;;;;;5106057;28;20127;-86
2022/10/27 12:59:23;;;;;;;;;;;21.70;99.80;;;;;;5107294;28;20173;-86
2022/10/27 13:01:54;;;;;;;;;;;21.70;99.90;;;;;;5104235;28;19912;-85
2022/10/27 13:04:42;;;;;;;;;;;21.70;99.90;;;;;;5105295;28;19918;-85
2022/10/27 13:07:26;;;;;;;;;;;21.70;99.90;;;;;;5103871;28;20115;-85
2022/10/27 13:10:07;;;;;;;;;;;21.70;99.90;;;;;;5103490;28;19908;-86
2022/10/27 13:12:33;;;;;;;;;;;21.70;99.90;;;;;;5104904;28;19908;-86
2022/10/27 13:15:07;;;;;;;;;;;21.60;99.90;;;;;;5107348;28;20174;-86
2022/10/27 13:17:42;;;;;;;;;;;21.70;99.90;;;;;;5107938;28;19908;-86
2022/10/27 13:20:16;;;;;;;;;;;21.60;99.90;;;;;;5106838;28;19911;-85
2022/10/27 13:22:42;;;;;;;;;;;21.70;99.90;;;;;;5104677;28;20006;-85
2022/10/27 13:25:10;;;;;;;;;;;21.70;99.90;;;;;;5105323;28;20018;-85
2022/10/27 13:27:52;;;;;;;;;;;21.70;99.90;;;;;;5104995;28;19907;-86
2022/10/27 13:30:26;;;;;;;;;;;21.70;99.90;;;;;;5107081;28;19915;-86
2022/10/27 13:32:52;;;;;;;;;;;21.60;99.90;;;;;;5105924;28;19920;-86
2022/10/27 13:35:18;;;;;;;;;;;21.60;99.90;;;;;;5104911;28;19919;-86
2022/10/27 13:37:48;;;;;;;;;;;21.60;99.90;;;;;;5101770;28;19919;-86
2022/10/27 13:40:18;;;;;;;;;;;21.60;99.90;;;;;;5101437;28;19927;-85
2022/10/27 13:42:47;;;;;;;;;;;21.60;99.90;;;;;;5105150;28;19907;-86
2022/10/27 13:45:25;;;;;;;;;;;21.60;99.90;;;;;;5107001;28;19907;-86
2022/10/27 13:48:06;;;;;;;;;;;21.60;99.90;;;;;;5106032;28;19935;-86
2022/10/27 13:50:42;;;;;;;;;;;21.60;99.90;;;;;;5107176;28;19972;-86
2022/10/27 13:53:14;;;;;;;;;;;21.70;99.90;;;;;;5102134;28;19912;-86
2022/10/27 13:55:47;;;;;;;;;;;21.70;99.90;;;;;;5100626;28;20070;-86
2022/10/27 13:58:18;;;;;;;;;;;21.70;99.90;;;;;;5101207;28;20052;-86
2022/10/27 14:00:56;;;;;;;;;;;21.70;99.90;;;;;;5099078;28;19954;-86
2022/10/27 14:03:37;;;;;;;;;;;21.70;99.90;;;;;;5100414;28;20320;-85
2022/10/27 14:06:09;;;;;;;;;;;21.70;99.90;;;;;;5101100;28;19908;-86
2022/10/27 14:08:55;;;;;;;;;;;21.70;99.90;;;;;;5104693;28;20103;-87
2022/10/27 14:11:23;;;;;;;;;;;21.70;99.90;;;;;;5101277;28;19908;-85
2022/10/27 14:13:51;;;;;;;;;;;21.70;99.90;;;;;;5104848;28;19973;-86
2022/10/27 14:16:20;;;;;;;;;;;21.70;99.90;;;;;;5102409;28;20083;-86
2022/10/27 14:18:56;;;;;;;;;;;21.70;99.90;;;;;;5105686;28;20142;-86
2022/10/27 14:21:23;;;;;;;;;;;21.70;99.90;;;;;;5103422;28;20449;-86
2022/10/27 14:23:49;;;;;;;;;;;21.70;99.90;;;;;;5104798;28;19908;-85
2022/10/27 14:26:24;;;;;;;;;;;21.70;99.90;;;;;;5096901;28;20391;-85
2022/10/27 14:28:50;;;;;;;;;;;21.60;99.90;;;;;;5093466;28;20003;-85